createdAt,value
2018-09-22T00:00:51.779Z,14.81
2018-09-22T00:03:21.220Z,14.71
2018-09-22T00:05:50.452Z,14.66
2018-09-22T00:08:19.845Z,14.52
2018-09-22T00:10:48.998Z,14.37
2018-09-22T00:13:18.083Z,14.35
2018-09-22T00:15:47.185Z,14.31
2018-09-22T00:18:16.297Z,14.30
2018-09-22T00:20:45.407Z,14.18
2018-09-22T00:23:14.506Z,14.13
2018-09-22T00:25:43.684Z,14.13
2018-09-22T00:28:12.971Z,14.03
2018-09-22T00:30:42.203Z,14.06
2018-09-22T00:33:11.376Z,13.96
2018-09-22T00:35:40.521Z,13.95
2018-09-22T00:38:09.622Z,13.93
2018-09-22T00:40:38.782Z,13.93
2018-09-22T00:43:08.169Z,14.04
2018-09-22T00:45:37.269Z,14.03
2018-09-22T00:48:06.424Z,14.10
2018-09-22T00:50:35.574Z,14.03
2018-09-22T00:53:04.704Z,14.10
2018-09-22T00:55:33.979Z,14.05
2018-09-22T00:58:03.143Z,14.12
2018-09-22T01:00:32.283Z,14.04
2018-09-22T01:03:01.538Z,14.18
2018-09-22T01:05:30.647Z,14.05
2018-09-22T01:07:59.795Z,14.01
2018-09-22T01:10:28.945Z,14.08
2018-09-22T01:12:58.145Z,13.97
2018-09-22T01:15:27.276Z,13.89
2018-09-22T01:17:56.818Z,13.86
2018-09-22T01:20:26.537Z,13.87
2018-09-22T01:22:55.635Z,13.83
2018-09-22T01:25:24.781Z,13.80
2018-09-22T01:27:53.938Z,13.88
2018-09-22T01:30:23.096Z,13.78
2018-09-22T01:32:52.264Z,13.67
2018-09-22T01:35:21.397Z,13.65
2018-09-22T01:37:52.625Z,13.76
2018-09-22T01:40:21.773Z,13.73
2018-09-22T01:42:50.951Z,13.67
2018-09-22T01:45:20.231Z,13.70
2018-09-22T01:47:49.568Z,13.67
2018-09-22T01:50:18.705Z,13.67
2018-09-22T01:52:47.858Z,13.67
2018-09-22T01:55:17.011Z,13.70
2018-09-22T01:57:46.164Z,13.65
2018-09-22T02:00:15.321Z,13.72
2018-09-22T02:02:44.526Z,13.76
2018-09-22T02:05:13.662Z,13.77
2018-09-22T02:07:42.797Z,13.70
2018-09-22T02:10:12.314Z,13.80
2018-09-22T02:12:41.461Z,13.74
2018-09-22T02:15:10.611Z,13.70
2018-09-22T02:17:39.779Z,13.68
2018-09-22T02:20:09.138Z,13.66
2018-09-22T02:22:38.260Z,13.78
2018-09-22T02:25:07.645Z,13.68
2018-09-22T02:27:36.881Z,13.66
2018-09-22T02:30:06.108Z,13.63
2018-09-22T02:32:40.273Z,13.58
2018-09-22T02:35:12.614Z,13.54
2018-09-22T02:37:41.992Z,13.51
2018-09-22T02:40:11.140Z,13.56
2018-09-22T02:42:40.299Z,13.56
2018-09-22T02:45:09.617Z,13.53
2018-09-22T02:47:38.804Z,13.50
2018-09-22T02:50:07.970Z,13.43
2018-09-22T02:52:37.118Z,13.43
2018-09-22T02:55:06.419Z,13.35
2018-09-22T02:57:35.543Z,13.32
2018-09-22T03:00:05.050Z,13.28
2018-09-22T03:02:36.031Z,13.30
2018-09-22T03:05:05.191Z,13.29
2018-09-22T03:07:34.349Z,13.27
2018-09-22T03:10:03.577Z,13.30
2018-09-22T03:12:32.690Z,13.27
2018-09-22T03:15:02.134Z,13.28
2018-09-22T03:17:31.276Z,13.26
2018-09-22T03:20:00.468Z,13.23
2018-09-22T03:22:29.627Z,13.23
2018-09-22T03:24:58.801Z,13.18
2018-09-22T03:27:27.965Z,13.17
2018-09-22T03:29:57.182Z,13.17
2018-09-22T03:32:26.343Z,13.18
2018-09-22T03:34:55.513Z,13.14
2018-09-22T03:37:24.669Z,13.10
2018-09-22T03:39:53.799Z,13.08
2018-09-22T03:42:22.967Z,12.98
2018-09-22T03:44:52.069Z,12.95
2018-09-22T03:47:21.206Z,12.97
2018-09-22T03:49:50.342Z,12.94
2018-09-22T03:52:19.490Z,12.88
2018-09-22T03:54:48.674Z,12.86
2018-09-22T03:57:17.791Z,12.88
2018-09-22T03:59:46.910Z,12.81
2018-09-22T04:02:16.090Z,12.77
2018-09-22T04:04:45.226Z,12.74
2018-09-22T04:07:14.382Z,12.71
2018-09-22T04:09:43.516Z,12.67
2018-09-22T04:12:12.708Z,12.63
2018-09-22T04:14:41.827Z,12.65
2018-09-22T04:17:10.956Z,12.62
2018-09-22T04:19:40.081Z,12.57
2018-09-22T04:22:09.271Z,12.53
2018-09-22T04:24:38.392Z,12.57
2018-09-22T04:27:07.643Z,12.58
2018-09-22T04:29:36.800Z,12.57
2018-09-22T04:32:05.974Z,12.56
2018-09-22T04:34:35.273Z,12.53
2018-09-22T04:37:04.454Z,12.54
2018-09-22T04:39:33.557Z,12.51
2018-09-22T04:42:02.689Z,12.54
2018-09-22T04:44:31.872Z,12.54
2018-09-22T04:47:01.000Z,12.53
2018-09-22T04:49:30.143Z,12.51
2018-09-22T04:51:59.336Z,12.56
2018-09-22T04:54:28.487Z,12.54
2018-09-22T04:56:57.705Z,12.62
2018-09-22T04:59:27.274Z,12.61
2018-09-22T05:01:56.414Z,12.61
2018-09-22T05:04:25.558Z,12.61
2018-09-22T05:06:54.733Z,12.63
2018-09-22T05:09:23.870Z,12.66
2018-09-22T05:11:52.990Z,12.64
2018-09-22T05:14:22.128Z,12.62
2018-09-22T05:16:51.256Z,12.62
2018-09-22T05:19:20.370Z,12.61
2018-09-22T05:21:49.534Z,12.61
2018-09-22T05:24:18.728Z,12.59
2018-09-22T05:26:47.917Z,12.63
2018-09-22T05:29:17.081Z,12.60
2018-09-22T05:31:46.229Z,12.65
2018-09-22T05:34:15.389Z,12.64
2018-09-22T05:36:44.562Z,12.63
2018-09-22T05:39:13.716Z,12.60
2018-09-22T05:41:42.877Z,12.59
2018-09-22T05:44:12.040Z,12.63
2018-09-22T05:46:41.184Z,12.62
2018-09-22T05:49:10.362Z,12.59
2018-09-22T05:51:39.575Z,12.65
2018-09-22T05:54:08.734Z,12.67
2018-09-22T05:56:37.879Z,12.71
2018-09-22T05:59:07.063Z,12.72
2018-09-22T06:01:36.207Z,12.78
2018-09-22T06:04:05.357Z,12.82
2018-09-22T06:06:34.511Z,12.84
2018-09-22T06:09:04.455Z,12.82
2018-09-22T06:11:33.593Z,12.85
2018-09-22T06:14:02.820Z,12.89
2018-09-22T06:16:31.952Z,12.94
2018-09-22T06:19:01.103Z,12.98
2018-09-22T06:21:30.328Z,13.01
2018-09-22T06:23:59.451Z,13.07
2018-09-22T06:26:28.615Z,13.21
2018-09-22T06:28:59.923Z,13.27
2018-09-22T06:31:29.140Z,13.38
2018-09-22T06:33:58.257Z,13.42
2018-09-22T06:36:27.440Z,13.51
2018-09-22T06:38:56.593Z,13.57
2018-09-22T06:41:25.760Z,13.64
2018-09-22T06:43:54.954Z,13.69
2018-09-22T06:46:24.107Z,13.79
2018-09-22T06:48:53.257Z,14.26
2018-09-22T06:51:22.443Z,14.40
2018-09-22T06:53:52.414Z,14.40
2018-09-22T06:56:21.578Z,14.45
2018-09-22T06:58:50.793Z,14.51
2018-09-22T07:01:20.020Z,14.55
2018-09-22T07:03:49.206Z,14.66
2018-09-22T07:06:18.427Z,14.67
2018-09-22T07:08:47.570Z,14.83
2018-09-22T07:11:22.976Z,14.87
2018-09-22T07:13:52.196Z,14.98
2018-09-22T07:16:21.467Z,15.06
2018-09-22T07:18:50.670Z,15.10
2018-09-22T07:21:24.418Z,15.13
2018-09-22T07:23:53.570Z,15.17
2018-09-22T07:26:22.766Z,15.11
2018-09-22T07:28:52.069Z,15.15
2018-09-22T07:31:22.016Z,15.16
2018-09-22T07:33:51.189Z,15.23
2018-09-22T07:36:20.480Z,15.20
2018-09-22T07:38:49.768Z,15.25
2018-09-22T07:41:18.995Z,15.31
2018-09-22T07:43:48.216Z,15.40
2018-09-22T07:46:17.624Z,15.50
2018-09-22T07:48:46.760Z,15.63
2018-09-22T07:51:15.928Z,15.66
2018-09-22T07:53:45.122Z,15.71
2018-09-22T07:56:14.270Z,15.81
2018-09-22T07:58:43.650Z,15.90
2018-09-22T08:01:12.923Z,15.93
2018-09-22T08:03:42.075Z,16.05
2018-09-22T08:06:11.257Z,16.02
2018-09-22T08:08:40.430Z,16.08
2018-09-22T08:11:09.742Z,16.04
2018-09-22T08:13:38.997Z,16.04
2018-09-22T08:16:08.337Z,16.11
2018-09-22T08:18:37.479Z,15.97
2018-09-22T08:21:07.000Z,16.02
2018-09-22T08:23:36.154Z,16.12
2018-09-22T08:26:05.348Z,16.17
2018-09-22T08:28:34.481Z,16.14
2018-09-22T08:31:03.677Z,16.28
2018-09-22T08:33:32.865Z,16.35
2018-09-22T08:36:08.407Z,16.34
2018-09-22T08:38:37.645Z,16.39
2018-09-22T08:41:07.397Z,16.34
2018-09-22T08:43:36.809Z,16.37
2018-09-22T08:46:06.374Z,16.34
2018-09-22T08:48:35.509Z,16.28
2018-09-22T08:51:04.785Z,16.41
2018-09-22T08:53:33.892Z,16.42
2018-09-22T08:56:03.377Z,16.51
2018-09-22T08:58:32.729Z,16.53
2018-09-22T09:01:01.915Z,16.51
2018-09-22T09:03:31.155Z,16.58
2018-09-22T09:06:00.369Z,16.71
2018-09-22T09:08:29.522Z,16.90
2018-09-22T09:10:59.023Z,16.76
2018-09-22T09:13:28.201Z,16.79
2018-09-22T09:15:57.336Z,16.78
2018-09-22T09:18:26.470Z,16.82
2018-09-22T09:20:55.627Z,16.80
2018-09-22T09:23:24.839Z,16.90
2018-09-22T09:25:53.977Z,16.84
2018-09-22T09:28:23.151Z,16.87
2018-09-22T09:30:52.418Z,16.90
2018-09-22T09:33:21.559Z,16.85
2018-09-22T09:35:51.076Z,16.91
2018-09-22T09:38:20.277Z,16.90
2018-09-22T09:40:49.769Z,16.84
2018-09-22T09:43:19.015Z,16.71
2018-09-22T09:45:48.234Z,16.75
2018-09-22T09:48:17.387Z,16.76
2018-09-22T09:50:46.593Z,16.85
2018-09-22T09:53:15.751Z,16.87
2018-09-22T09:55:44.922Z,16.89
2018-09-22T09:58:14.050Z,16.96
2018-09-22T10:00:46.220Z,17.04
2018-09-22T10:03:16.951Z,17.07
2018-09-22T10:05:46.736Z,17.10
2018-09-22T10:08:16.283Z,17.12
2018-09-22T10:10:46.267Z,17.17
2018-09-22T10:13:15.530Z,17.29
2018-09-22T10:15:44.697Z,17.39
2018-09-22T10:18:13.897Z,17.35
2018-09-22T10:20:43.061Z,17.52
2018-09-22T10:23:12.275Z,17.74
2018-09-22T10:25:41.565Z,17.71
2018-09-22T10:28:10.765Z,17.78
2018-09-22T10:30:39.892Z,17.86
2018-09-22T10:33:09.186Z,17.82
2018-09-22T10:35:38.350Z,17.72
2018-09-22T10:38:07.584Z,17.69
2018-09-22T10:40:36.753Z,17.81
2018-09-22T10:43:05.981Z,17.98
2018-09-22T10:45:35.224Z,18.08
2018-09-22T10:48:04.476Z,18.24
2018-09-22T10:50:33.614Z,18.24
2018-09-22T10:53:02.804Z,18.31
2018-09-22T10:55:31.914Z,18.30
2018-09-22T10:58:01.074Z,18.10
2018-09-22T11:00:30.187Z,18.09
2018-09-22T11:02:59.345Z,18.09
2018-09-22T11:05:28.495Z,18.23
2018-09-22T11:07:57.666Z,18.31
2018-09-22T11:10:26.826Z,18.44
2018-09-22T11:12:56.139Z,18.35
2018-09-22T11:15:25.279Z,18.39
2018-09-22T11:17:54.464Z,18.36
2018-09-22T11:20:23.668Z,18.36
2018-09-22T11:22:53.049Z,18.41
2018-09-22T11:25:22.376Z,18.59
2018-09-22T11:27:51.980Z,18.69
2018-09-22T11:30:21.649Z,18.67
2018-09-22T11:32:50.814Z,18.75
2018-09-22T11:35:20.346Z,18.63
2018-09-22T11:37:49.678Z,18.79
2018-09-22T11:40:18.871Z,18.74
2018-09-22T11:42:48.041Z,18.70
2018-09-22T11:45:17.176Z,18.77
2018-09-22T11:47:46.359Z,18.93
2018-09-22T11:50:15.498Z,18.92
2018-09-22T11:52:44.702Z,19.11
2018-09-22T11:55:14.075Z,19.11
2018-09-22T11:57:43.233Z,19.06
2018-09-22T12:00:13.538Z,18.96
2018-09-22T12:02:42.699Z,18.82
2018-09-22T12:05:11.837Z,18.79
2018-09-22T12:07:40.997Z,18.72
2018-09-22T12:10:10.168Z,18.83
2018-09-22T12:12:39.276Z,18.72
2018-09-22T12:15:08.667Z,18.63
2018-09-22T12:17:37.945Z,18.57
2018-09-22T12:20:07.128Z,18.51
2018-09-22T12:22:36.322Z,18.65
2018-09-22T12:25:05.553Z,18.80
2018-09-22T12:27:34.698Z,18.92
2018-09-22T12:30:03.915Z,18.92
2018-09-22T12:32:33.067Z,18.94
2018-09-22T12:35:02.232Z,18.82
2018-09-22T12:37:31.430Z,18.85
2018-09-22T12:40:00.746Z,19.07
2018-09-22T12:42:30.029Z,19.30
2018-09-22T12:44:59.195Z,19.36
2018-09-22T12:47:28.439Z,19.49
2018-09-22T12:49:57.566Z,19.54
2018-09-22T12:52:27.211Z,19.42
2018-09-22T12:54:56.543Z,19.32
2018-09-22T12:57:25.661Z,19.36
2018-09-22T12:59:54.852Z,19.22
2018-09-22T13:02:24.008Z,19.30
2018-09-22T13:04:53.140Z,19.15
2018-09-22T13:07:22.297Z,19.28
2018-09-22T13:09:51.483Z,19.18
2018-09-22T13:12:20.677Z,19.15
2018-09-22T13:14:49.849Z,19.39
2018-09-22T13:17:19.074Z,19.29
2018-09-22T13:19:48.238Z,19.32
2018-09-22T13:22:17.357Z,19.27
2018-09-22T13:24:46.519Z,19.13
2018-09-22T13:27:15.657Z,19.06
2018-09-22T13:29:44.795Z,19.05
2018-09-22T13:32:14.070Z,18.96
2018-09-22T13:34:43.191Z,18.89
2018-09-22T13:37:12.414Z,18.90
2018-09-22T13:39:41.639Z,18.89
2018-09-22T13:42:10.797Z,19.17
2018-09-22T13:44:39.961Z,19.09
2018-09-22T13:47:09.343Z,18.95
2018-09-22T13:49:38.489Z,18.93
2018-09-22T13:52:07.670Z,19.12
2018-09-22T13:54:36.825Z,19.02
2018-09-22T13:57:06.102Z,18.95
2018-09-22T13:59:35.423Z,18.85
2018-09-22T14:02:04.631Z,18.77
2018-09-22T14:04:33.810Z,18.76
2018-09-22T14:07:02.972Z,18.58
2018-09-22T14:09:32.121Z,18.62
2018-09-22T14:12:01.343Z,18.67
2018-09-22T14:14:30.464Z,18.73
2018-09-22T14:16:59.681Z,18.81
2018-09-22T14:19:28.816Z,18.84
2018-09-22T14:21:57.999Z,18.77
2018-09-22T14:24:27.152Z,18.64
2018-09-22T14:26:56.366Z,18.51
2018-09-22T14:29:25.468Z,18.56
2018-09-22T14:31:54.655Z,18.72
2018-09-22T14:34:23.820Z,18.51
2018-09-22T14:36:52.958Z,18.47
2018-09-22T14:39:22.145Z,18.48
2018-09-22T14:41:51.294Z,18.45
2018-09-22T14:44:20.446Z,18.48
2018-09-22T14:46:49.642Z,18.39
2018-09-22T14:49:18.818Z,18.30
2018-09-22T14:51:47.989Z,18.25
2018-09-22T14:54:17.129Z,18.25
2018-09-22T14:56:46.274Z,18.22
2018-09-22T14:59:15.402Z,18.17
2018-09-22T15:01:44.554Z,18.06
2018-09-22T15:04:13.687Z,18.00
2018-09-22T15:06:42.842Z,17.83
2018-09-22T15:09:11.996Z,17.74
2018-09-22T15:11:41.145Z,17.76
2018-09-22T15:14:10.765Z,17.70
2018-09-22T15:16:39.941Z,17.70
2018-09-22T15:19:10.111Z,17.65
2018-09-22T15:21:39.256Z,17.64
2018-09-22T15:24:08.438Z,17.62
2018-09-22T15:26:37.577Z,17.53
2018-09-22T15:29:06.757Z,17.45
2018-09-22T15:31:35.907Z,17.44
2018-09-22T15:34:05.078Z,17.29
2018-09-22T15:36:34.224Z,17.25
2018-09-22T15:39:03.536Z,17.17
2018-09-22T15:41:32.670Z,17.06
2018-09-22T15:44:01.813Z,16.97
2018-09-22T15:46:30.981Z,16.91
2018-09-22T15:49:00.159Z,16.88
2018-09-22T15:51:29.368Z,16.79
2018-09-22T15:53:58.530Z,16.71
2018-09-22T15:56:27.692Z,16.66
2018-09-22T15:58:56.815Z,16.59
2018-09-22T16:01:26.361Z,16.54
2018-09-22T16:03:55.594Z,16.46
2018-09-22T16:06:24.795Z,16.37
2018-09-22T16:08:54.211Z,16.23
2018-09-22T16:11:23.383Z,16.16
2018-09-22T16:13:52.542Z,16.09
2018-09-22T16:16:22.094Z,16.04
2018-09-22T16:18:51.310Z,16.00
2018-09-22T16:21:20.449Z,16.02
2018-09-22T16:23:49.903Z,16.05
2018-09-22T16:26:19.099Z,16.06
2018-09-22T16:28:48.226Z,16.04
2018-09-22T16:31:17.905Z,16.06
2018-09-22T16:33:47.051Z,16.04
2018-09-22T16:36:16.207Z,16.04
2018-09-22T16:38:45.718Z,16.17
2018-09-22T16:41:14.855Z,16.21
2018-09-22T16:43:43.990Z,16.31
2018-09-22T16:46:13.190Z,16.20
2018-09-22T16:48:42.437Z,16.11
2018-09-22T16:51:11.605Z,16.00
2018-09-22T16:53:41.610Z,15.90
2018-09-22T16:56:10.798Z,15.84
2018-09-22T16:58:39.997Z,15.79
2018-09-22T17:01:09.402Z,15.73
2018-09-22T17:03:38.899Z,15.70
2018-09-22T17:06:08.050Z,15.69
2018-09-22T17:08:38.447Z,15.62
2018-09-22T17:11:08.259Z,15.59
2018-09-22T17:13:37.457Z,15.52
2018-09-22T17:16:07.322Z,15.45
2018-09-22T17:18:36.564Z,15.36
2018-09-22T17:21:06.247Z,15.34
2018-09-22T17:23:35.772Z,15.32
2018-09-22T17:26:05.363Z,15.32
2018-09-22T17:28:34.568Z,15.33
2018-09-22T17:31:03.930Z,15.22
2018-09-22T17:33:33.123Z,15.16
2018-09-22T17:36:02.269Z,15.12
2018-09-22T17:38:31.819Z,15.10
2018-09-22T17:41:01.030Z,15.07
2018-09-22T17:43:30.195Z,15.03
2018-09-22T17:45:59.585Z,15.01
2018-09-22T17:48:28.782Z,15.00
2018-09-22T17:50:57.926Z,15.00
2018-09-22T17:53:27.616Z,15.01
2018-09-22T17:55:56.528Z,15.00
2018-09-22T17:58:25.747Z,15.00
2018-09-22T18:00:55.173Z,15.00
2018-09-22T18:03:25.738Z,15.05
2018-09-22T18:05:54.876Z,15.08
2018-09-22T18:08:24.362Z,15.11
2018-09-22T18:10:53.555Z,15.12
2018-09-22T18:13:24.130Z,15.11
2018-09-22T18:15:53.546Z,15.07
2018-09-22T18:18:22.689Z,15.02
2018-09-22T18:20:51.862Z,15.00
2018-09-22T18:23:21.372Z,15.00
2018-09-22T18:25:50.522Z,14.89
2018-09-22T18:28:19.678Z,14.87
2018-09-22T18:30:49.144Z,14.91
2018-09-22T18:33:18.361Z,14.92
2018-09-22T18:35:47.568Z,14.86
2018-09-22T18:38:17.328Z,14.84
2018-09-22T18:40:46.963Z,14.83
2018-09-22T18:43:16.284Z,14.84
2018-09-22T18:45:45.765Z,14.82
2018-09-22T18:48:14.893Z,14.85
2018-09-22T18:50:44.047Z,14.84
2018-09-22T18:53:13.469Z,14.85
2018-09-22T18:55:43.868Z,14.86
2018-09-22T18:58:13.366Z,14.87
2018-09-22T19:00:44.232Z,14.87
2018-09-22T19:03:13.384Z,14.88
2018-09-22T19:05:42.560Z,14.85
2018-09-22T19:08:12.076Z,14.80
2018-09-22T19:10:41.177Z,14.77
2018-09-22T19:13:12.158Z,14.74
2018-09-22T19:15:53.825Z,14.69
2018-09-22T19:18:34.086Z,14.65
2018-09-22T19:21:09.970Z,14.58
2018-09-22T19:23:42.658Z,14.54
2018-09-22T19:26:21.690Z,14.50
2018-09-22T19:29:26.654Z,14.48
2018-09-22T19:32:04.019Z,14.43
2018-09-22T19:34:37.653Z,14.40
2018-09-22T19:37:18.827Z,14.39
2018-09-22T19:39:55.152Z,14.41
2018-09-22T19:42:33.960Z,14.41
2018-09-22T19:45:07.809Z,14.39
2018-09-22T19:47:42.790Z,14.38
2018-09-22T19:50:14.707Z,14.36
2018-09-22T19:52:51.931Z,14.35
2018-09-22T19:55:21.669Z,14.38
2018-09-22T19:57:50.947Z,14.39
2018-09-22T20:00:20.080Z,14.39
2018-09-22T20:02:49.280Z,14.41
2018-09-22T20:05:18.562Z,14.42
2018-09-22T20:07:47.745Z,14.42
2018-09-22T20:10:16.958Z,14.44
2018-09-22T20:12:46.104Z,14.44
2018-09-22T20:15:15.319Z,14.45
2018-09-22T20:17:44.496Z,14.45
2018-09-22T20:20:14.057Z,14.46
2018-09-22T20:22:43.280Z,14.48
2018-09-22T20:25:12.422Z,14.46
2018-09-22T20:27:41.555Z,14.46
2018-09-22T20:30:10.775Z,14.46
2018-09-22T20:32:39.915Z,14.42
2018-09-22T20:35:09.152Z,14.42
2018-09-22T20:37:38.893Z,14.41
2018-09-22T20:40:09.208Z,14.39
2018-09-22T20:42:39.555Z,14.39
2018-09-22T20:47:48.167Z,14.36
2018-09-22T20:50:19.742Z,14.35
2018-09-22T20:52:57.695Z,14.33
2018-09-22T20:55:27.309Z,14.31
2018-09-22T20:57:57.031Z,14.31
2018-09-22T21:00:31.538Z,14.38
2018-09-22T21:03:03.131Z,14.35
2018-09-22T21:08:20.106Z,14.31
2018-09-22T21:10:53.954Z,14.30
2018-09-22T21:13:23.092Z,14.31
2018-09-22T21:15:53.822Z,14.30
2018-09-22T21:18:23.007Z,14.30
2018-09-22T21:20:52.805Z,14.29
2018-09-22T21:23:24.354Z,14.27
2018-09-22T21:25:53.560Z,14.26
2018-09-22T21:28:23.029Z,14.28
2018-09-22T21:30:52.508Z,14.26
2018-09-22T21:33:25.026Z,14.25
2018-09-22T21:35:54.241Z,14.24
2018-09-22T21:38:25.834Z,14.24
2018-09-22T21:40:56.244Z,14.23
2018-09-22T21:43:28.384Z,14.23
2018-09-22T21:48:34.619Z,14.21
2018-09-22T21:51:03.841Z,14.20
2018-09-22T21:53:33.143Z,14.19
2018-09-22T21:56:02.392Z,14.18
2018-09-22T21:58:31.574Z,14.10
2018-09-22T22:01:00.704Z,14.02
2018-09-22T22:03:29.850Z,13.98
2018-09-22T22:05:58.987Z,13.93
2018-09-22T22:08:28.121Z,13.89
2018-09-22T22:10:57.354Z,13.87
2018-09-22T22:13:26.518Z,13.87
2018-09-22T22:15:55.660Z,13.87
2018-09-22T22:18:24.827Z,13.86
2018-09-22T22:20:54.001Z,13.86
2018-09-22T22:23:23.117Z,13.83
2018-09-22T22:25:52.311Z,13.83
2018-09-22T22:28:21.468Z,13.82
2018-09-22T22:30:50.605Z,13.83
2018-09-22T22:33:19.765Z,13.84
2018-09-22T22:35:48.933Z,13.83
2018-09-22T22:38:18.066Z,13.85
2018-09-22T22:40:47.222Z,13.84
2018-09-22T22:43:16.367Z,13.82
2018-09-22T22:45:45.499Z,13.81
2018-09-22T22:48:14.649Z,13.82
2018-09-22T22:50:43.818Z,13.80
2018-09-22T22:53:12.962Z,13.77
2018-09-22T22:55:42.157Z,13.76
2018-09-22T22:58:11.389Z,13.76
2018-09-22T23:00:40.525Z,13.74
2018-09-22T23:03:09.726Z,13.66
2018-09-22T23:05:38.863Z,13.63
2018-09-22T23:08:08.055Z,13.64
2018-09-22T23:10:37.197Z,13.65
2018-09-22T23:13:06.847Z,13.65
2018-09-22T23:15:35.988Z,13.68
2018-09-22T23:18:05.159Z,13.63
2018-09-22T23:20:34.287Z,13.60
2018-09-22T23:23:03.413Z,13.59
2018-09-22T23:25:32.585Z,13.59
2018-09-22T23:28:01.836Z,13.58
2018-09-22T23:30:30.967Z,13.55
2018-09-22T23:33:00.131Z,13.52
2018-09-22T23:35:29.277Z,13.48
2018-09-22T23:37:58.732Z,13.43
2018-09-22T23:40:27.992Z,13.40
2018-09-22T23:42:57.118Z,13.38
2018-09-22T23:45:26.275Z,13.19
2018-09-22T23:47:55.441Z,13.19
2018-09-22T23:50:24.586Z,13.22
2018-09-22T23:52:53.765Z,13.22
2018-09-22T23:55:22.948Z,13.25
2018-09-22T23:57:52.305Z,13.30
